Extreme weather reports worldwide

Thunderstorm

Station
 
Location
 
Name
 
Wind
Knots
Gust
Knots
Vis
SM
Temp/Dew
C
Baro
inHg
METAR
 
VDSA 22 38 4.35 25/24 29.68 VDSA 230830Z 26022G38KT 7000 -TSRA SCT015 FEW017CB BKN040 25/24 Q1005 RMK CB:SW
FAR KFAR Fargo, US Hector International Airport 11 19 21/17 29.96 KFAR 230853Z 11011G19KT 10SM TS FU OVC030 21/18 A2996 RMK AO2 LTG DSNT N-SE RAE14 TSB0757E34B36 SLP140 P0000 60000 T02110178 53008
PPK UACP Petropavlosk, KZ Petropavlosk South Airport 16 25/17 29.47 UACP 230830Z 22008MPS 9999 VCTS BKN030CB 25/17 Q0998 NOSIG RMK QFE737/0982
AAQ URKA Anapa, RU Anapa Vityazevo Airport 12 23/20 29.73 URKA 230830Z 08006MPS 9999 TS SCT026CB 23/20 Q1007 R21/010070 TEMPO 06009G14MPS 0500 +TSRA SCT004 BKN016CB RMK QFE750/1000
JLR VAJB IN Jabalpur Airport 11 2.8 26/25 29.53 VAJB 230830Z 26011KT 4500 TS SCT010 SCT020 FEW030CB BKN090 26/25 Q1000 TEMPO 4000 -TSRA

Station
 
Location
 
Name
 
Wind
Knots
Gust
Knots
Vis
SM
Temp/Dew
C
Baro
inHg
METAR
 
NQX KNQX Key West, US Naval Air Station Key West/Boca Chica Field 9 31/26 30.05 KNQX 230853Z AUTO 11009KT 10SM TS FEW023 31/26 A3005 RMK AO2 TSB43 SLP173 T03110261 53001 $
KADC Wadena, US Wadena Municipal Airport 8 7 17/17 30.01 KADC 230855Z 06008KT 7SM -VCTSRA 17/17 A3001 RMK AO2 LTG DSNT ALQDS
HAK ZJHK Haikou, CN Haikou Meilan International Airport 8 1.24 25/25 29.53 ZJHK 230800Z 26004MPS 230V310 2000 +TSRA SCT006 SCT026CB SCT026 25/25 Q1000 BECMG TL0830 5000 TSRA
LNR KLNR Lone Rock, US Tri-County Regional Airport 7 8 20/18 29.99 KLNR 230856Z AUTO 33007KT 8SM VCTS -RA FEW014 BKN050 OVC110 20/19 A2999 RMK AO2 LTG DSNT N AND NW RAB55 SLP145 P0001 60001 T02000189 53003
YYE CYYE Fort Nelson, CA Fort Nelson Airport 7 1 21/19 29.75 CYYE 230843Z 08007KT 1SM TSRA FU VV030 21/19 A2975 RMK FU8 CVCTV CLD EMBD SLP075 DENSITY ALT 2400FT
KETH Wheaton, US Wheaton Municipal Airport 6 7 20/18 29.96 KETH 230853Z AUTO 13006KT 7SM VCTS BKN070 20/18 A2996 RMK AO2 LTG DSNT N AND NW
KMOX Morris, US Morris Municipal - Charlie Schmidt Airport 6 6 19/19 29.95 KMOX 230855Z AUTO 14006KT 6SM VCTS BR FEW044 FEW050 FEW065 19/19 A2995 RMK AO2 LTG DSNT NW-NE
FKS RJSF Sukagawa, JP Fukushima Airport 6 3.11 23/21 29.79 RJSF 230848Z 07006KT 030V120 5000 -TSRA BR FEW003 FEW025CB BKN050 23/21 Q1009 RMK 1ST003 2CB025 6CU050 A2980 9999SE-SW FBL TS 5KM SE AND 15KM NE MOV E
KY63 6 20/18 29.98 KY63 230855Z AUTO 14006KT 10SM VCTS SCT050 BKN065 20/19 A2998 RMK AO2 LTG DSNT W THRU E T02020185
URS UUOK Kursk, RU Kursk East Airport 6 5.59 21/14 29.82 UUOK 230830Z 06003MPS 030V100 9000 -TSRA SCT038CB 21/14 Q1010 R30/090060 NOSIG RMK QFE739/0986
SRH FTTA Sarh, TD Sarh Airport 6 23/23 30.06 FTTA 230800Z 22006KT 9999 -TSRA FEW020 FEW050CB 23/23 Q1018
BGY LIME Bergamo, IT Il Caravaggio International Airport 5 26/19 30.03 LIME 230850Z 30005KT 9999 VCTS FEW020CB BKN050 26/19 Q1017 TEMPO TSRA
KIN MKJP Kingston, JM Norman Manley International Airport 5 29/25 29.91 MKJP 230800Z 08005KT 9999 VCTS FEW022 FEW024CB SCT045 29/25 Q1013
IXR VERC Ranchi, IN Birsa Munda Airport 5 0.62 25/24 29.56 VERC 230830Z 11005KT 1000 R31/1500 R13/1300 TSRA SCT008 SCT012 FEW030CB OVC080 25/24 Q1001 NOSIG
KLXL Little Falls, US Little Falls-Morrison County-Lindbergh field 5 17/16 30.01 KLXL 230855Z AUTO 12005KT 10SM VCTS BKN006 BKN070 17/16 A3001 RMK AO2 LTG DSNT W AND NW
WAH KBWP Wahpeton, US Harry Stern Airport 4 6 20/20 29.93 KBWP 230855Z AUTO VRB04KT 6SM TS BR FEW007 BKN041 OVC050 20/20 A2993 RMK AO2 LTG DSNT ALQDS
GAQ GAGO ML Gao Airport 4 3.11 24/21 30.00 GAGO 230800Z 05004KT 5000 TSRA OVC030 FEW040CB 24/21 Q1016 NOSIG
LEW KLEW Auburn/Lewiston, US Auburn Lewiston Municipal Airport 3 3 18/18 30.02 KLEW 230856Z AUTO 28003KT 3SM TSRA BR OVC004 18/18 A3002 RMK AO2 LTG DSNT W AND NW TSB56RAB38 SLP170 P0001 60001 T01830183 55000
KECU Rocksprings, US Edwards County Airport 3 9 21/21 30.09 KECU 230835Z AUTO 04003KT 9SM VCTS DZ 21/21 A3009 RMK AO2 LTG DSNT ALQDS
DTL KDTL Detroit Lakes, US Detroit Lakes Airport - Wething Field 3 17/17 30.00 KDTL 230855Z AUTO 30003KT 10SM VCTS FEW010 SCT027 BKN060 17/17 A3000 RMK AO2 LTG DSNT ALQDS P0005
K14Y 3 17/17 30.02 K14Y 230848Z AUTO 10003KT 10SM VCTS OVC041 17/17 A3002 RMK AO2 LTG DSNT W THRU NE
MAX GOSM Matam, SN Ouro Sogui Airport 2 29/26 29.94 GOSM 230800Z 30002KT 9999 -TSRA SCT013 FEW030CB 29/26 Q1014
K8B0 0 9 15/15 30.08 K8B0 230855Z AUTO 00000KT 9SM VCTS FEW032 FEW040 OVC075 15/15 A3008 RMK AO2 LTG DSNT SE P0001
KSAZ Staples, US Staples Municipal Airport 0 5 18/17 30.03 KSAZ 230855Z AUTO 00000KT 5SM TSRA SCT019 BKN028 OVC110 18/17 A3003 RMK AO2 P0006 LTG DSNT SE THRU NW
CWA KCWA Mosinee, US Central Wisconsin Airport 0 17/17 29.96 KCWA 230835Z AUTO 00000KT 10SM VCTS FEW075 BKN100 OVC120 17/17 A2996 RMK AO2 LTG DSNT E AND W